AFL1524 UNBB-UNBG
Flight info
| Callsign | AFL1524 |
|---|---|
| Flight time | 0h 26m |
| Altitude | 23000 |
| Route | INBOK B206 KUDEB |
| Aircraft | A320/M-SDE3FGHIRWY/LB1 |
Departure
| Time | 2026-04-29 13:04 |
|---|---|
| Airport | Barnaul Gherman Titov International Airport (UNBB) |
Arrival
| Time | 2026-04-29 13:30 |
|---|---|
| Airport | Gorno-Altaysk Airport (UNBG) |
| Time | Latitude | Longitude | Altitude | Speed | Heading |
|---|---|---|---|---|---|
| 2026-04-29 12:59 | 53.36377 | 83.55174 | 841 ft | 0 kts | 68° |
| 2026-04-29 13:01 | 53.36391 | 83.55212 | 829 ft | 7 kts | 49° |
| 2026-04-29 13:01 | 53.36446 | 83.55231 | 831 ft | 9 kts | 28° |
| 2026-04-29 13:01 | 53.36483 | 83.55349 | 838 ft | 14 kts | 68° |
| 2026-04-29 13:01 | 53.36532 | 83.55544 | 839 ft | 22 kts | 68° |
| 2026-04-29 13:02 | 53.36595 | 83.55801 | 834 ft | 23 kts | 67° |
| 2026-04-29 13:02 | 53.36664 | 83.56004 | 841 ft | 18 kts | 24° |
| 2026-04-29 13:02 | 53.36763 | 83.55966 | 835 ft | 15 kts | 338° |
| 2026-04-29 13:02 | 53.36798 | 83.55914 | 830 ft | 8 kts | 278° |
| 2026-04-29 13:03 | 53.36777 | 83.55799 | 836 ft | 14 kts | 248° |
| 2026-04-29 13:03 | 53.36671 | 83.55377 | 839 ft | 77 kts | 247° |
| 2026-04-29 13:03 | 53.36375 | 83.54189 | 830 ft | 141 kts | 247° |
| 2026-04-29 13:03 | 53.35943 | 83.52494 | 1183 ft | 163 kts | 245° |
| 2026-04-29 13:04 | 53.35538 | 83.50716 | 1937 ft | 166 kts | 256° |
| 2026-04-29 13:04 | 53.35737 | 83.48757 | 2435 ft | 187 kts | 303° |
| 2026-04-29 13:04 | 53.36794 | 83.47359 | 2813 ft | 208 kts | 346° |
| 2026-04-29 13:04 | 53.38264 | 83.47521 | 3243 ft | 225 kts | 30° |
| 2026-04-29 13:05 | 53.39389 | 83.49407 | 3721 ft | 242 kts | 65° |
| 2026-04-29 13:05 | 53.39935 | 83.52173 | 4405 ft | 256 kts | 79° |
| 2026-04-29 13:05 | 53.40232 | 83.55154 | 5351 ft | 262 kts | 83° |
| 2026-04-29 13:05 | 53.40467 | 83.58208 | 6304 ft | 267 kts | 83° |
| 2026-04-29 13:06 | 53.40710 | 83.61322 | 7236 ft | 272 kts | 82° |
| 2026-04-29 13:06 | 53.40981 | 83.64525 | 8179 ft | 276 kts | 80° |
| 2026-04-29 13:06 | 53.41273 | 83.67692 | 9103 ft | 280 kts | 79° |
| 2026-04-29 13:06 | 53.41597 | 83.70972 | 10037 ft | 284 kts | 78° |
| 2026-04-29 13:07 | 53.41937 | 83.74249 | 10703 ft | 298 kts | 78° |
| 2026-04-29 13:07 | 53.42318 | 83.77843 | 11032 ft | 322 kts | 78° |
| 2026-04-29 13:07 | 53.42384 | 83.81688 | 11522 ft | 340 kts | 98° |
| 2026-04-29 13:07 | 53.41520 | 83.85412 | 12246 ft | 350 kts | 122° |
| 2026-04-29 13:08 | 53.39955 | 83.88583 | 13023 ft | 356 kts | 128° |
| 2026-04-29 13:08 | 53.38590 | 83.92048 | 13789 ft | 359 kts | 117° |
| 2026-04-29 13:08 | 53.37386 | 83.95732 | 14519 ft | 363 kts | 116° |
| 2026-04-29 13:08 | 53.36216 | 83.99495 | 15225 ft | 366 kts | 115° |
| 2026-04-29 13:09 | 53.35074 | 84.03325 | 15935 ft | 369 kts | 114° |
| 2026-04-29 13:09 | 53.33949 | 84.07209 | 16648 ft | 373 kts | 113° |
| 2026-04-29 13:09 | 53.32825 | 84.11137 | 17349 ft | 376 kts | 113° |
| 2026-04-29 13:09 | 53.31687 | 84.15098 | 18044 ft | 380 kts | 114° |
| 2026-04-29 13:10 | 53.30532 | 84.19090 | 18735 ft | 383 kts | 114° |
| 2026-04-29 13:10 | 53.29361 | 84.23112 | 19313 ft | 386 kts | 114° |
| 2026-04-29 13:10 | 53.27980 | 84.26993 | 19891 ft | 392 kts | 124° |
| 2026-04-29 13:10 | 53.26175 | 84.30440 | 20466 ft | 397 kts | 135° |
| 2026-04-29 13:11 | 53.24064 | 84.33444 | 21037 ft | 401 kts | 139° |
| 2026-04-29 13:11 | 53.21906 | 84.36428 | 21597 ft | 404 kts | 139° |
| 2026-04-29 13:11 | 53.19728 | 84.39443 | 22164 ft | 408 kts | 138° |
| 2026-04-29 13:11 | 53.17542 | 84.42467 | 22711 ft | 411 kts | 138° |
| 2026-04-29 13:12 | 53.15331 | 84.45516 | 23219 ft | 414 kts | 139° |
| 2026-04-29 13:12 | 53.13075 | 84.48621 | 23364 ft | 416 kts | 138° |
| 2026-04-29 13:12 | 53.10832 | 84.51711 | 23386 ft | 425 kts | 138° |
| 2026-04-29 13:12 | 53.08511 | 84.54915 | 23382 ft | 441 kts | 138° |
| 2026-04-29 13:13 | 53.06113 | 84.58223 | 23384 ft | 454 kts | 138° |
| 2026-04-29 13:13 | 53.03643 | 84.61618 | 23387 ft | 467 kts | 138° |
| 2026-04-29 13:13 | 53.01109 | 84.65091 | 23385 ft | 477 kts | 139° |
| 2026-04-29 13:13 | 52.98565 | 84.68564 | 23378 ft | 463 kts | 139° |
| 2026-04-29 13:14 | 52.96133 | 84.71865 | 23385 ft | 441 kts | 139° |
| 2026-04-29 13:14 | 52.93813 | 84.75010 | 23385 ft | 423 kts | 138° |
| 2026-04-29 13:14 | 52.91557 | 84.78084 | 23388 ft | 418 kts | 138° |
| 2026-04-29 13:14 | 52.89318 | 84.81143 | 23386 ft | 417 kts | 138° |
| 2026-04-29 13:15 | 52.87081 | 84.84192 | 23382 ft | 416 kts | 138° |
| 2026-04-29 13:15 | 52.84856 | 84.87210 | 23148 ft | 406 kts | 138° |
| 2026-04-29 13:15 | 52.82713 | 84.90103 | 22617 ft | 389 kts | 138° |
| 2026-04-29 13:15 | 52.80659 | 84.92868 | 22162 ft | 373 kts | 138° |
| 2026-04-29 13:16 | 52.79343 | 84.94638 | 21868 ft | 368 kts | 137° |
| 2026-04-29 13:16 | 52.77360 | 84.97308 | 21402 ft | 367 kts | 137° |
| 2026-04-29 13:16 | 52.75352 | 85.00013 | 20938 ft | 367 kts | 137° |
| 2026-04-29 13:16 | 52.73366 | 85.02689 | 20460 ft | 373 kts | 137° |
| 2026-04-29 13:17 | 52.71328 | 85.05444 | 19956 ft | 382 kts | 137° |
| 2026-04-29 13:17 | 52.69273 | 85.08216 | 19456 ft | 381 kts | 137° |
| 2026-04-29 13:17 | 52.67220 | 85.10976 | 18941 ft | 381 kts | 137° |
| 2026-04-29 13:17 | 52.65167 | 85.13725 | 18399 ft | 380 kts | 137° |
| 2026-04-29 13:18 | 52.63119 | 85.16461 | 17868 ft | 378 kts | 138° |
| 2026-04-29 13:18 | 52.61084 | 85.19177 | 17372 ft | 376 kts | 138° |
| 2026-04-29 13:18 | 52.59074 | 85.21858 | 16856 ft | 368 kts | 138° |
| 2026-04-29 13:18 | 52.57084 | 85.24511 | 16358 ft | 368 kts | 138° |
| 2026-04-29 13:19 | 52.55099 | 85.27154 | 15880 ft | 366 kts | 138° |
| 2026-04-29 13:19 | 52.53122 | 85.29785 | 15380 ft | 365 kts | 138° |
| 2026-04-29 13:19 | 52.51151 | 85.32400 | 14898 ft | 364 kts | 138° |
| 2026-04-29 13:19 | 52.49203 | 85.34977 | 14405 ft | 355 kts | 139° |
| 2026-04-29 13:20 | 52.47291 | 85.37503 | 13903 ft | 351 kts | 138° |
| 2026-04-29 13:20 | 52.45534 | 85.40214 | 13420 ft | 346 kts | 132° |
| 2026-04-29 13:20 | 52.43851 | 85.43017 | 12916 ft | 343 kts | 132° |
| 2026-04-29 13:20 | 52.42189 | 85.45779 | 12437 ft | 340 kts | 132° |
| 2026-04-29 13:21 | 52.40536 | 85.48518 | 11950 ft | 336 kts | 133° |
| 2026-04-29 13:21 | 52.38898 | 85.51229 | 11460 ft | 333 kts | 133° |
| 2026-04-29 13:21 | 52.37275 | 85.53911 | 10974 ft | 330 kts | 133° |
| 2026-04-29 13:21 | 52.35678 | 85.56539 | 10570 ft | 317 kts | 133° |
| 2026-04-29 13:22 | 52.34174 | 85.59005 | 10288 ft | 298 kts | 133° |
| 2026-04-29 13:22 | 52.32740 | 85.61363 | 10143 ft | 290 kts | 133° |
| 2026-04-29 13:22 | 52.31319 | 85.63698 | 10008 ft | 289 kts | 133° |
| 2026-04-29 13:22 | 52.29900 | 85.66023 | 9824 ft | 289 kts | 133° |
| 2026-04-29 13:23 | 52.28462 | 85.68377 | 9169 ft | 287 kts | 133° |
| 2026-04-29 13:23 | 52.27058 | 85.70683 | 8421 ft | 285 kts | 133° |
| 2026-04-29 13:23 | 52.25673 | 85.72960 | 7786 ft | 280 kts | 133° |
| 2026-04-29 13:23 | 52.24307 | 85.75195 | 7145 ft | 276 kts | 134° |
| 2026-04-29 13:24 | 52.22960 | 85.77396 | 6498 ft | 272 kts | 133° |
| 2026-04-29 13:24 | 52.21632 | 85.79568 | 5832 ft | 268 kts | 133° |
| 2026-04-29 13:24 | 52.20349 | 85.81672 | 5537 ft | 250 kts | 133° |
| 2026-04-29 13:24 | 52.19349 | 85.83798 | 5477 ft | 224 kts | 119° |
| 2026-04-29 13:25 | 52.18681 | 85.86005 | 5422 ft | 215 kts | 114° |
| 2026-04-29 13:25 | 52.17403 | 85.90392 | 5249 ft | 214 kts | 115° |
| 2026-04-29 13:25 | 52.16765 | 85.92579 | 5146 ft | 213 kts | 114° |
| 2026-04-29 13:26 | 52.16114 | 85.94751 | 5049 ft | 213 kts | 120° |
| 2026-04-29 13:26 | 52.15056 | 85.96336 | 4940 ft | 209 kts | 157° |
| 2026-04-29 13:26 | 52.13634 | 85.96473 | 4754 ft | 210 kts | 196° |
| 2026-04-29 13:26 | 52.12288 | 85.95509 | 4488 ft | 213 kts | 204° |
| 2026-04-29 13:27 | 52.10950 | 85.94448 | 4166 ft | 213 kts | 203° |
| 2026-04-29 13:27 | 52.09626 | 85.93416 | 3858 ft | 210 kts | 202° |
| 2026-04-29 13:27 | 52.08316 | 85.92405 | 3546 ft | 207 kts | 202° |
| 2026-04-29 13:27 | 52.07021 | 85.91409 | 3239 ft | 205 kts | 202° |
| 2026-04-29 13:28 | 52.05741 | 85.90423 | 2934 ft | 203 kts | 202° |
| 2026-04-29 13:28 | 52.04484 | 85.89457 | 2657 ft | 196 kts | 202° |
| 2026-04-29 13:28 | 52.03273 | 85.88525 | 2353 ft | 190 kts | 202° |
| 2026-04-29 13:28 | 52.02107 | 85.87629 | 2062 ft | 179 kts | 203° |
| 2026-04-29 13:29 | 52.01005 | 85.86784 | 1750 ft | 171 kts | 204° |
| 2026-04-29 13:29 | 51.99951 | 85.85976 | 1510 ft | 161 kts | 204° |
| 2026-04-29 13:29 | 51.98963 | 85.85202 | 1265 ft | 154 kts | 204° |
| 2026-04-29 13:29 | 51.98007 | 85.84477 | 1048 ft | 150 kts | 202° |
| 2026-04-29 13:30 | 51.97104 | 85.83802 | 972 ft | 130 kts | 205° |
| 2026-04-29 13:30 | 51.96555 | 85.83374 | 969 ft | 41 kts | 205° |
| 2026-04-29 13:30 | 51.96298 | 85.83181 | 971 ft | 40 kts | 206° |
| 2026-04-29 13:30 | 51.96082 | 85.83014 | 973 ft | 19 kts | 205° |
| 2026-04-29 13:31 | 51.95987 | 85.82993 | 975 ft | 5 kts | 231° |
| 2026-04-29 13:31 | 51.96004 | 85.82975 | 974 ft | 11 kts | 346° |
| 2026-04-29 13:31 | 51.96103 | 85.83029 | 972 ft | 19 kts | 26° |
| 2026-04-29 13:31 | 51.96243 | 85.83139 | 973 ft | 26 kts | 26° |
| 2026-04-29 13:32 | 51.96431 | 85.83280 | 970 ft | 33 kts | 25° |
| 2026-04-29 13:32 | 51.96652 | 85.83449 | 972 ft | 28 kts | 25° |
| 2026-04-29 13:32 | 51.96780 | 85.83578 | 973 ft | 13 kts | 62° |
| 2026-04-29 13:32 | 51.96795 | 85.83755 | 970 ft | 19 kts | 87° |
| 2026-04-29 13:33 | 51.96768 | 85.83959 | 976 ft | 12 kts | 90° |
| 2026-04-29 13:33 | 51.96850 | 85.84046 | 973 ft | 10 kts | 25° |
| 2026-04-29 13:33 | 51.96888 | 85.84017 | 972 ft | 0 kts | 297° |